createdAt,value
2017-06-14T00:00:38.536Z,75.9
2017-06-14T00:01:37.726Z,75.8
2017-06-14T00:02:36.956Z,75.7
2017-06-14T00:03:36.187Z,75.5
2017-06-14T00:04:35.416Z,77.3
2017-06-14T00:05:34.644Z,77.2
2017-06-14T00:06:34.265Z,77.1
2017-06-14T00:07:33.380Z,76.9
2017-06-14T00:08:32.496Z,76.7
2017-06-14T00:09:31.887Z,77
2017-06-14T00:10:31.384Z,76.4
2017-06-14T00:11:30.625Z,76.6
2017-06-14T00:12:30.317Z,76.5
2017-06-14T00:13:28.893Z,76.9
2017-06-14T00:14:28.124Z,77.7
2017-06-14T00:16:26.522Z,77.3
2017-06-14T00:17:25.761Z,77.8
2017-06-14T00:18:25.489Z,77.2
2017-06-14T00:20:23.610Z,78.1
2017-06-14T00:21:23.235Z,77.6
2017-06-14T00:22:22.471Z,78.4
2017-06-14T00:23:21.707Z,79
2017-06-14T00:24:20.890Z,78.8
2017-06-14T00:25:20.077Z,78.8
2017-06-14T00:26:19.312Z,78.8
2017-06-14T00:27:18.704Z,78.9
2017-06-14T00:28:17.821Z,78.9
2017-06-14T00:29:17.051Z,78.5
2017-06-14T00:30:16.284Z,79
2017-06-14T00:31:15.513Z,78.6
2017-06-14T00:32:15.130Z,79.6
2017-06-14T00:33:14.387Z,79.1
2017-06-14T00:34:13.621Z,79.7
2017-06-14T00:35:12.854Z,79.6
2017-06-14T00:36:12.094Z,80.4
2017-06-14T00:36:42.521Z,80.4
2017-06-14T00:38:11.019Z,80
2017-06-14T00:39:09.748Z,79.8
2017-06-14T00:40:08.980Z,80.3
2017-06-14T00:41:08.210Z,80.6
2017-06-14T00:42:07.526Z,80.4
2017-06-14T00:43:06.760Z,80.7
2017-06-14T00:44:05.881Z,80.5
2017-06-14T00:46:04.647Z,80.3
2017-06-14T00:47:03.643Z,80.6
2017-06-14T00:48:02.960Z,81.3
2017-06-14T00:49:02.073Z,81.1
2017-06-14T00:50:01.379Z,80.7
2017-06-14T00:51:00.763Z,81
2017-06-14T00:51:59.913Z,81.5
2017-06-14T00:52:59.026Z,81.3
2017-06-14T00:53:58.261Z,81.7
2017-06-14T00:54:28.686Z,81.7
2017-06-14T00:54:59.812Z,81.5
2017-06-14T00:55:29.433Z,81.5
2017-06-14T00:55:59.975Z,81
2017-06-14T00:56:56.185Z,81.7
2017-06-14T00:57:55.415Z,81
2017-06-14T00:58:54.795Z,80.8
2017-06-14T00:59:54.023Z,81.4
2017-06-14T01:00:53.139Z,81.2
2017-06-14T01:01:52.524Z,80.6
2017-06-14T01:02:51.755Z,81
2017-06-14T01:04:49.944Z,80.6
2017-06-14T01:05:49.177Z,80.8
2017-06-14T01:06:48.433Z,81
2017-06-14T01:08:46.939Z,81
2017-06-14T01:09:46.168Z,81.5
2017-06-14T01:10:45.789Z,81.8
2017-06-14T01:11:45.023Z,81.3
2017-06-14T01:12:44.250Z,81.1
2017-06-14T01:13:43.483Z,81.1
2017-06-14T01:14:42.596Z,81
2017-06-14T01:15:41.707Z,81.4
2017-06-14T01:16:40.940Z,81.2
2017-06-14T01:18:39.566Z,81.3
2017-06-14T01:19:38.555Z,81.1
2017-06-14T01:20:37.788Z,81.8
2017-06-14T01:21:36.895Z,81.8
2017-06-14T01:22:36.634Z,81.7
2017-06-14T01:23:35.866Z,81.8
2017-06-14T01:24:35.102Z,82
2017-06-14T01:25:34.337Z,82.1
2017-06-14T01:26:33.337Z,82.3
2017-06-14T01:27:32.570Z,82.4
2017-06-14T01:28:31.808Z,81.9
2017-06-14T01:29:31.129Z,81.8
2017-06-14T01:30:30.364Z,82.6
2017-06-14T01:31:29.591Z,82.8
2017-06-14T01:32:28.825Z,82.4
2017-06-14T01:33:28.056Z,82.7
2017-06-14T01:34:27.182Z,82.9
2017-06-14T01:35:26.413Z,83
2017-06-14T01:36:25.651Z,82.6
2017-06-14T01:37:25.265Z,82.4
2017-06-14T01:38:24.499Z,82.8
2017-06-14T01:39:23.731Z,83.5
2017-06-14T01:40:22.961Z,83.4
2017-06-14T01:41:22.197Z,83.2
2017-06-14T01:43:20.313Z,84.3
2017-06-14T01:44:19.555Z,84.3
2017-06-14T01:45:19.172Z,83.7
2017-06-14T01:46:18.406Z,83.6
2017-06-14T01:47:17.404Z,83.3
2017-06-14T01:49:16.028Z,83.3
2017-06-14T01:50:15.262Z,83.4
2017-06-14T01:51:14.374Z,83.4
2017-06-14T01:52:13.481Z,83.2
2017-06-14T01:53:13.107Z,83.2
2017-06-14T01:54:12.268Z,82.9
2017-06-14T01:55:11.385Z,82.7
2017-06-14T01:56:10.617Z,82.6
2017-06-14T01:57:09.857Z,82.3
2017-06-14T01:58:09.084Z,82.1
2017-06-14T01:59:08.316Z,82.7
2017-06-14T02:00:07.550Z,82.9
2017-06-14T02:01:06.788Z,82.5
2017-06-14T02:02:05.907Z,82.4
2017-06-14T02:03:05.021Z,82.8
2017-06-14T02:04:04.258Z,82.4
2017-06-14T02:05:03.496Z,83.2
2017-06-14T02:06:03.004Z,82.7
2017-06-14T02:07:02.245Z,83.3
2017-06-14T02:08:01.358Z,83.3
2017-06-14T02:09:00.594Z,83
2017-06-14T02:09:59.827Z,82.9
2017-06-14T02:10:58.943Z,83
2017-06-14T02:11:58.176Z,82.9
2017-06-14T02:12:57.489Z,82.6
2017-06-14T02:13:56.607Z,82.8
2017-06-14T02:14:55.841Z,82.8
2017-06-14T02:15:55.070Z,82.4
2017-06-14T02:16:54.297Z,82.2
2017-06-14T02:17:54.034Z,82.5
2017-06-14T02:18:53.143Z,82.7
2017-06-14T02:19:52.303Z,83
2017-06-14T02:20:51.535Z,83.2
2017-06-14T02:21:50.767Z,82.9
2017-06-14T02:22:49.996Z,82.6
2017-06-14T02:23:48.990Z,82.7
2017-06-14T02:24:48.612Z,82.5
2017-06-14T02:25:47.429Z,82.4
2017-06-14T02:26:47.167Z,82.2
2017-06-14T02:27:46.403Z,82.8
2017-06-14T02:28:45.636Z,82.9
2017-06-14T02:29:44.756Z,83.3
2017-06-14T02:30:44.572Z,83
2017-06-14T02:31:43.066Z,83.1
2017-06-14T02:32:42.195Z,83.1
2017-06-14T02:33:41.812Z,83.1
2017-06-14T02:34:40.963Z,82.9
2017-06-14T02:35:40.080Z,82.9
2017-06-14T02:36:39.204Z,83.7
2017-06-14T02:37:38.324Z,83.4
2017-06-14T02:38:37.559Z,83.1
2017-06-14T02:39:36.801Z,82.9
2017-06-14T02:40:36.027Z,83.4
2017-06-14T02:41:35.652Z,83.1
2017-06-14T02:42:34.887Z,82.9
2017-06-14T02:43:34.119Z,83.4
2017-06-14T02:44:33.351Z,83.6
2017-06-14T02:45:32.581Z,83.8
2017-06-14T02:46:31.390Z,84.8
2017-06-14T02:47:30.618Z,85.3
2017-06-14T02:49:29.235Z,85.6
2017-06-14T02:50:28.463Z,85.5
2017-06-14T02:51:27.689Z,85.4
2017-06-14T02:52:26.909Z,85.2
2017-06-14T02:53:26.133Z,85.1
2017-06-14T02:54:25.357Z,85
2017-06-14T02:55:24.457Z,85.1
2017-06-14T02:56:23.690Z,85.5
2017-06-14T02:57:22.910Z,85.4
2017-06-14T02:58:22.142Z,85.4
2017-06-14T02:59:21.395Z,85.5
2017-06-14T03:00:20.615Z,85.8
2017-06-14T03:01:19.718Z,85.8
2017-06-14T03:02:19.323Z,86.1
2017-06-14T03:03:18.503Z,86
2017-06-14T03:04:17.604Z,86.3
2017-06-14T03:05:16.821Z,85.9
2017-06-14T03:06:16.043Z,85.9
2017-06-14T03:07:15.262Z,85.9
2017-06-14T03:08:14.864Z,85.7
2017-06-14T03:09:14.666Z,86.5
2017-06-14T03:10:12.877Z,86.7
2017-06-14T03:11:12.120Z,86.3
2017-06-14T03:12:11.336Z,86.9
2017-06-14T03:13:10.551Z,86.9
2017-06-14T03:14:10.037Z,87.3
2017-06-14T03:15:09.026Z,86.6
2017-06-14T03:16:08.131Z,87.1
2017-06-14T03:17:07.855Z,87.7
2017-06-14T03:18:07.075Z,87.1
2017-06-14T03:19:06.295Z,87.1
2017-06-14T03:20:05.395Z,87.2
2017-06-14T03:21:04.690Z,86.9
2017-06-14T03:22:03.792Z,86.9
2017-06-14T03:23:02.898Z,87
2017-06-14T03:24:02.122Z,87.1
2017-06-14T03:25:01.292Z,88.1
2017-06-14T03:26:00.518Z,87.5
2017-06-14T03:26:59.802Z,87.7
2017-06-14T03:27:59.078Z,88.3
2017-06-14T03:28:58.294Z,88.2
2017-06-14T03:29:57.514Z,88.2
2017-06-14T03:30:56.737Z,88.1
2017-06-14T03:31:55.951Z,88.1
2017-06-14T03:32:55.234Z,87.8
2017-06-14T03:33:54.453Z,88
2017-06-14T03:34:24.866Z,88
2017-06-14T03:34:55.546Z,88.1
2017-06-14T03:35:52.752Z,88.2
2017-06-14T03:36:51.972Z,88.7
2017-06-14T03:37:51.199Z,88.8
2017-06-14T03:38:50.255Z,88.3
2017-06-14T03:39:49.831Z,87.8
2017-06-14T03:40:49.054Z,87.7
2017-06-14T03:41:48.163Z,87.9
2017-06-14T03:42:47.390Z,88.2
2017-06-14T03:43:46.683Z,88.4
2017-06-14T03:44:45.784Z,88.6
2017-06-14T03:45:45.003Z,88.2
2017-06-14T03:46:44.226Z,88.4
2017-06-14T03:47:43.446Z,88.3
2017-06-14T03:48:42.550Z,88.4
2017-06-14T03:49:42.041Z,88.3
2017-06-14T03:50:41.203Z,87.8
2017-06-14T03:51:40.425Z,87.4
2017-06-14T03:52:39.646Z,88.5
2017-06-14T03:53:38.874Z,88.1
2017-06-14T03:54:37.766Z,87.8
2017-06-14T03:55:36.994Z,87.7
2017-06-14T03:56:36.161Z,87.8
2017-06-14T03:57:35.383Z,88
2017-06-14T03:58:34.606Z,88
2017-06-14T03:59:33.823Z,88.3
2017-06-14T04:00:33.046Z,88.3
2017-06-14T04:01:32.260Z,88.4
2017-06-14T04:02:31.483Z,88.3
2017-06-14T04:03:30.705Z,88.1
2017-06-14T04:04:29.925Z,87.8
2017-06-14T04:05:29.148Z,87.8
2017-06-14T04:06:28.373Z,88.3
2017-06-14T04:07:27.600Z,88
2017-06-14T04:08:26.826Z,87.7
2017-06-14T04:09:26.314Z,87.8
2017-06-14T04:10:25.532Z,87.9
2017-06-14T04:12:23.642Z,87.3
2017-06-14T04:13:22.868Z,87.9
2017-06-14T04:15:21.360Z,87.5
2017-06-14T04:16:20.584Z,87.4
2017-06-14T04:17:19.811Z,87.4
2017-06-14T04:18:19.041Z,87.1
2017-06-14T04:19:18.268Z,87.1
2017-06-14T04:20:17.491Z,87.2
2017-06-14T04:21:16.718Z,87.1
2017-06-14T04:22:15.941Z,86.8
2017-06-14T04:23:15.157Z,86.6
2017-06-14T04:24:14.385Z,86.4
2017-06-14T04:25:14.178Z,86.7
2017-06-14T04:26:12.902Z,86.5
2017-06-14T04:27:12.129Z,86.5
2017-06-14T04:28:11.930Z,86.7
2017-06-14T04:29:10.648Z,86.4
2017-06-14T04:30:09.869Z,86.3
2017-06-14T04:31:08.973Z,86.2
2017-06-14T04:32:08.201Z,86.2
2017-06-14T04:33:07.423Z,85.9
2017-06-14T04:34:06.406Z,86.4
2017-06-14T04:35:05.713Z,86.5
2017-06-14T04:36:04.936Z,86.1
2017-06-14T04:37:04.418Z,85.9
2017-06-14T04:38:03.658Z,86
2017-06-14T04:39:02.877Z,86.2
2017-06-14T04:40:01.978Z,86.3
2017-06-14T04:41:01.198Z,86.4
2017-06-14T04:42:00.302Z,86.6
2017-06-14T04:42:59.519Z,86.3
2017-06-14T04:43:58.622Z,86.3
2017-06-14T04:44:57.902Z,86
2017-06-14T04:45:57.062Z,85.9
2017-06-14T04:47:56.144Z,85.7
2017-06-14T04:48:54.739Z,85.8
2017-06-14T04:49:53.903Z,85.7
2017-06-14T04:50:53.508Z,85.7
2017-06-14T04:51:52.374Z,85.9
2017-06-14T04:52:51.981Z,85.7
2017-06-14T04:53:50.959Z,85.9
2017-06-14T04:54:50.063Z,85.9
2017-06-14T04:55:49.667Z,86
2017-06-14T04:56:48.769Z,85.8
2017-06-14T04:57:47.989Z,85.5
2017-06-14T04:58:47.208Z,85.7
2017-06-14T04:59:46.510Z,85.5
2017-06-14T05:00:45.733Z,85.7
2017-06-14T05:01:44.955Z,85.7
2017-06-14T05:02:44.176Z,86.1
2017-06-14T05:03:43.162Z,85.8
2017-06-14T05:04:42.652Z,85.6
2017-06-14T05:05:41.757Z,85.8
2017-06-14T05:06:40.988Z,85.8
2017-06-14T05:07:40.087Z,85.7
2017-06-14T05:08:39.305Z,85.5
2017-06-14T05:09:38.531Z,85.4
2017-06-14T05:10:37.749Z,85.3
2017-06-14T05:11:36.967Z,85.4
2017-06-14T05:12:36.186Z,85.5
2017-06-14T05:13:35.399Z,85.5
2017-06-14T05:14:34.617Z,85.7
2017-06-14T05:16:33.655Z,85.7
2017-06-14T05:17:32.257Z,85.4
2017-06-14T05:18:31.477Z,84.4
2017-06-14T05:19:30.703Z,83.9
2017-06-14T05:20:29.920Z,84
2017-06-14T05:21:29.521Z,83.7
2017-06-14T05:22:28.738Z,83.1
2017-06-14T05:23:27.964Z,83
2017-06-14T05:24:27.182Z,83.1
2017-06-14T05:25:26.290Z,82.9
2017-06-14T05:26:25.387Z,82.4
2017-06-14T05:27:24.760Z,82.3
2017-06-14T05:28:23.981Z,82
2017-06-14T05:29:23.200Z,81.2
2017-06-14T05:30:22.420Z,80.9
2017-06-14T05:31:21.640Z,81
2017-06-14T05:32:20.751Z,80.9
2017-06-14T05:33:19.977Z,80.8
2017-06-14T05:34:19.177Z,80.9
2017-06-14T05:35:18.471Z,80.8
2017-06-14T05:36:17.694Z,80.5
2017-06-14T05:37:17.301Z,80
2017-06-14T05:38:16.516Z,79.4
2017-06-14T05:39:15.738Z,79.5
2017-06-14T05:40:14.838Z,79.1
2017-06-14T05:41:14.066Z,79.2
2017-06-14T05:42:13.353Z,79.1
2017-06-14T05:43:12.501Z,78.8
2017-06-14T05:44:11.720Z,79
2017-06-14T05:45:10.937Z,78.9
2017-06-14T05:46:10.223Z,79.1
2017-06-14T05:47:09.329Z,78.3
2017-06-14T05:48:08.512Z,77.8
2017-06-14T05:49:08.114Z,77.4
2017-06-14T05:50:07.338Z,77.6
2017-06-14T05:51:06.445Z,77.8
2017-06-14T05:52:05.548Z,77.1
2017-06-14T05:53:04.832Z,77.2
2017-06-14T05:54:03.935Z,76.9
2017-06-14T05:55:03.601Z,77
2017-06-14T05:56:02.455Z,77.2
2017-06-14T05:57:01.673Z,77.5
2017-06-14T05:58:00.902Z,77.2
2017-06-14T05:59:00.505Z,76.2
2017-06-14T05:59:59.639Z,75.6
2017-06-14T06:00:58.869Z,75.6
2017-06-14T06:01:58.089Z,75.6
2017-06-14T06:02:57.193Z,75.4
2017-06-14T06:03:56.800Z,75.6
2017-06-14T06:04:55.901Z,76
2017-06-14T06:05:55.120Z,75.7
2017-06-14T06:07:53.607Z,75.1
2017-06-14T06:08:52.898Z,75.3
2017-06-14T06:09:52.117Z,75.2
2017-06-14T06:10:51.286Z,75
2017-06-14T06:11:50.508Z,74.4
2017-06-14T06:12:49.726Z,74.8
2017-06-14T06:13:48.944Z,74.6
2017-06-14T06:14:48.166Z,74.7
2017-06-14T06:15:47.453Z,74.7
2017-06-14T06:16:46.680Z,74.5
2017-06-14T06:17:46.285Z,74.6
2017-06-14T06:18:45.505Z,74.6
2017-06-14T06:19:44.675Z,74.7
2017-06-14T06:20:43.899Z,74.6
2017-06-14T06:21:43.113Z,74.7
2017-06-14T06:22:42.335Z,74.9
2017-06-14T06:23:41.557Z,74.8
2017-06-14T06:24:41.175Z,74.9
2017-06-14T06:25:40.288Z,74.7
2017-06-14T06:26:39.273Z,74.6
2017-06-14T06:27:38.879Z,74.7
2017-06-14T06:28:38.100Z,74.8
2017-06-14T06:29:37.321Z,74.7
2017-06-14T06:30:07.854Z,74.7
2017-06-14T06:30:38.450Z,74.2
2017-06-14T06:31:08.981Z,74.2
2017-06-14T06:32:34.811Z,74
2017-06-14T06:33:34.058Z,74
2017-06-14T06:34:33.281Z,73.9
2017-06-14T06:35:33.574Z,74.3
2017-06-14T06:36:32.290Z,74.1
2017-06-14T06:37:31.511Z,74.1
2017-06-14T06:38:30.619Z,74
2017-06-14T06:39:29.901Z,74.1
2017-06-14T06:40:29.185Z,73.8
2017-06-14T06:41:28.406Z,73.6
2017-06-14T06:42:27.704Z,73.5
2017-06-14T06:43:26.924Z,73.7
2017-06-14T06:44:26.145Z,73.5
2017-06-14T06:45:25.361Z,73.1
2017-06-14T06:46:24.582Z,73
2017-06-14T06:47:23.802Z,72.8
2017-06-14T06:48:23.028Z,72.8
2017-06-14T06:49:22.138Z,72.6
2017-06-14T06:50:21.749Z,72.1
2017-06-14T06:51:20.859Z,72.1
2017-06-14T06:52:20.080Z,72.3
2017-06-14T06:53:19.807Z,72.2
2017-06-14T06:54:18.914Z,72.5
2017-06-14T06:55:18.144Z,72.5
2017-06-14T06:56:17.253Z,72.2
2017-06-14T06:57:16.472Z,72.4
2017-06-14T06:58:15.705Z,72
2017-06-14T06:59:15.312Z,71.7
2017-06-14T07:00:14.592Z,71.8
2017-06-14T07:01:13.813Z,72.2
2017-06-14T07:02:13.082Z,71.9
2017-06-14T07:03:12.188Z,71.8
2017-06-14T07:04:11.403Z,71.1
2017-06-14T07:05:10.685Z,70.9
2017-06-14T07:06:10.294Z,71
2017-06-14T07:07:09.521Z,71.4
2017-06-14T07:09:08.078Z,70.9
2017-06-14T07:10:07.185Z,71.1
2017-06-14T07:11:06.413Z,70.3
2017-06-14T07:12:05.515Z,70.5
2017-06-14T07:13:05.177Z,70.7
2017-06-14T07:14:04.221Z,70.7
2017-06-14T07:15:03.834Z,71.2
2017-06-14T07:16:02.934Z,71
2017-06-14T07:17:02.222Z,71
2017-06-14T07:18:01.447Z,70.5
2017-06-14T07:19:00.711Z,69.8
2017-06-14T07:19:59.927Z,69.7
2017-06-14T07:20:59.035Z,69.2
2017-06-14T07:22:57.646Z,69.2
2017-06-14T07:23:57.369Z,69.4
2017-06-14T07:24:56.592Z,69.8
2017-06-14T07:25:55.613Z,69.7
2017-06-14T07:26:55.216Z,69.9
2017-06-14T07:27:54.319Z,69.7
2017-06-14T07:28:53.636Z,69
2017-06-14T07:29:52.735Z,69.1
2017-06-14T07:30:51.841Z,69.3
2017-06-14T07:31:51.450Z,68.8
2017-06-14T07:32:50.552Z,68.9
2017-06-14T07:33:49.774Z,69
2017-06-14T07:34:49.377Z,69.3
2017-06-14T07:35:48.360Z,69.6
2017-06-14T07:36:47.589Z,68.8
2017-06-14T07:37:47.317Z,69.1
2017-06-14T07:38:46.536Z,69.2
2017-06-14T07:39:46.214Z,68.5
2017-06-14T07:40:44.931Z,68
2017-06-14T07:41:15.344Z,68
2017-06-14T07:41:45.882Z,68.1
2017-06-14T07:42:43.473Z,68.6
2017-06-14T07:43:42.696Z,68.7
2017-06-14T07:44:41.919Z,68.9
2017-06-14T07:45:41.646Z,68
2017-06-14T07:46:40.745Z,67.6
2017-06-14T07:48:39.356Z,67.3
2017-06-14T07:49:38.461Z,67.5
2017-06-14T07:50:37.686Z,67.7
2017-06-14T07:51:37.411Z,67.7
2017-06-14T07:52:36.637Z,67.6
2017-06-14T07:53:35.857Z,67.2
2017-06-14T07:54:35.647Z,67.9
2017-06-14T07:55:34.368Z,66.9
2017-06-14T07:56:33.581Z,66.9
2017-06-14T07:57:33.193Z,66.7
2017-06-14T07:58:32.410Z,66.5
2017-06-14T07:59:31.519Z,66.5
2017-06-14T08:00:30.736Z,66.7
2017-06-14T08:01:29.957Z,66.7
2017-06-14T08:02:29.681Z,66.6
2017-06-14T08:03:28.898Z,66.6
2017-06-14T08:04:28.272Z,66.5
2017-06-14T08:05:27.564Z,66
2017-06-14T08:06:26.783Z,66.1
2017-06-14T08:07:26.017Z,65.6
2017-06-14T08:08:25.241Z,65.4
2017-06-14T08:09:24.458Z,64.9
2017-06-14T08:10:23.680Z,65.1
2017-06-14T08:11:23.169Z,65
2017-06-14T08:12:22.401Z,65.7
2017-06-14T08:13:21.624Z,65.1
2017-06-14T08:14:21.230Z,65.5
2017-06-14T08:15:20.457Z,65.6
2017-06-14T08:16:19.676Z,65
2017-06-14T08:17:18.905Z,65.4
2017-06-14T08:18:18.126Z,65.2
2017-06-14T08:19:17.350Z,65.3
2017-06-14T08:20:16.652Z,65.7
2017-06-14T08:21:16.384Z,65.3
2017-06-14T08:22:15.374Z,64.6
2017-06-14T08:23:14.595Z,64.7
2017-06-14T08:24:14.322Z,64.4
2017-06-14T08:25:13.553Z,64.3
2017-06-14T08:26:12.861Z,64.5
2017-06-14T08:27:12.122Z,64.8
2017-06-14T08:28:11.343Z,64.6
2017-06-14T08:29:10.444Z,64.8
2017-06-14T08:30:10.056Z,64.4
2017-06-14T08:31:09.047Z,64.2
2017-06-14T08:32:08.660Z,64.7
2017-06-14T08:33:07.880Z,64.7
2017-06-14T08:34:06.986Z,63.9
2017-06-14T08:35:06.711Z,64.1
2017-06-14T08:36:05.732Z,63.7
2017-06-14T08:37:04.952Z,63.9
2017-06-14T08:38:04.172Z,63.3
2017-06-14T08:39:03.777Z,63.1
2017-06-14T08:40:02.881Z,63.7
2017-06-14T08:41:02.497Z,63.5
2017-06-14T08:42:01.726Z,63.1
2017-06-14T08:43:00.944Z,62.6
2017-06-14T08:43:59.927Z,62.6
2017-06-14T08:44:59.646Z,62.4
2017-06-14T08:45:59.313Z,61.6
2017-06-14T08:46:29.802Z,61.6
2017-06-14T08:46:59.870Z,60.9
2017-06-14T08:47:30.163Z,60.9
2017-06-14T08:48:00.695Z,61.6
2017-06-14T08:48:31.759Z,61.6
2017-06-14T08:49:01.669Z,62
2017-06-14T08:49:32.201Z,62
2017-06-14T08:50:02.381Z,61.5
2017-06-14T08:50:55.322Z,61.6
2017-06-14T08:51:54.613Z,61.6
2017-06-14T08:52:54.288Z,61.2
2017-06-14T08:53:53.392Z,61.3
2017-06-14T08:54:52.607Z,61.2
2017-06-14T08:55:52.218Z,61.2
2017-06-14T08:56:51.439Z,61.7
2017-06-14T08:57:50.426Z,60.9
2017-06-14T08:58:50.159Z,61.1
2017-06-14T08:59:49.025Z,61.1
2017-06-14T09:00:48.752Z,61.3
2017-06-14T09:01:47.863Z,61.8
2017-06-14T09:02:47.585Z,61.5
2017-06-14T09:03:46.809Z,61.3
2017-06-14T09:04:45.914Z,61.2
2017-06-14T09:05:46.082Z,61.4
2017-06-14T09:06:44.807Z,61.6
2017-06-14T09:07:43.909Z,61.9
2017-06-14T09:08:43.076Z,62
2017-06-14T09:09:42.809Z,62
2017-06-14T09:10:42.033Z,62.1
2017-06-14T09:11:41.255Z,62
2017-06-14T09:12:40.474Z,61.6
2017-06-14T09:13:40.083Z,62.3
2017-06-14T09:15:38.691Z,60.5
2017-06-14T09:16:37.910Z,61
2017-06-14T09:17:37.141Z,61.1
2017-06-14T09:18:36.362Z,61
2017-06-14T09:19:36.086Z,60.6
2017-06-14T09:20:35.072Z,60.9
2017-06-14T09:21:34.676Z,61.1
2017-06-14T09:22:33.782Z,60.9
2017-06-14T09:23:33.009Z,61.3
2017-06-14T09:24:32.737Z,60.7
2017-06-14T09:25:31.956Z,60.6
2017-06-14T09:26:31.185Z,60.8
2017-06-14T09:27:30.404Z,60.9
2017-06-14T09:28:29.643Z,61
2017-06-14T09:29:29.384Z,60.7
2017-06-14T09:30:28.609Z,60.3
2017-06-14T09:31:27.835Z,59.8
2017-06-14T09:32:27.440Z,59.2
2017-06-14T09:33:26.664Z,60
2017-06-14T09:34:25.896Z,59.8
2017-06-14T09:35:25.119Z,59.3
2017-06-14T09:36:24.342Z,58.6
2017-06-14T09:37:23.713Z,58.3
2017-06-14T09:38:23.320Z,58
2017-06-14T09:39:22.538Z,57.9
2017-06-14T09:40:21.641Z,57.4
2017-06-14T09:41:20.900Z,57.4
2017-06-14T09:43:20.020Z,56.5
2017-06-14T09:44:19.245Z,57
2017-06-14T09:45:18.472Z,57.2
2017-06-14T09:46:18.197Z,57.6
2017-06-14T09:47:17.514Z,58.1
2017-06-14T09:48:16.733Z,57.8
2017-06-14T09:49:15.956Z,57.5
2017-06-14T09:50:15.249Z,57.4
2017-06-14T09:51:14.474Z,57.6
2017-06-14T09:52:14.198Z,57.8
2017-06-14T09:53:13.423Z,58.1
2017-06-14T09:54:12.531Z,58.1
2017-06-14T09:55:12.251Z,57.6
2017-06-14T09:56:11.358Z,58.1
2017-06-14T09:57:10.582Z,58.2
2017-06-14T09:58:10.065Z,58.4
2017-06-14T09:59:10.118Z,58.1
2017-06-14T10:00:08.714Z,58.2
2017-06-14T10:01:07.937Z,58.1
2017-06-14T10:02:07.664Z,58
2017-06-14T10:03:06.918Z,57.2
2017-06-14T10:04:06.092Z,56.9
2017-06-14T10:05:05.691Z,56.8
2017-06-14T10:06:04.715Z,56.5
2017-06-14T10:07:04.437Z,56.3
2017-06-14T10:08:03.656Z,56.8
2017-06-14T10:09:02.940Z,56.6
2017-06-14T10:10:02.547Z,57.4
2017-06-14T10:11:01.769Z,57.3
2017-06-14T10:12:01.001Z,57.9
2017-06-14T10:13:59.489Z,57.5
2017-06-14T10:14:59.208Z,57.7
2017-06-14T10:15:58.430Z,57.6
2017-06-14T10:16:57.651Z,57
2017-06-14T10:17:57.372Z,56.9
2017-06-14T10:18:56.600Z,56.7
2017-06-14T10:19:55.719Z,56.5
2017-06-14T10:20:55.448Z,57
2017-06-14T10:21:54.611Z,57.3
2017-06-14T10:22:53.832Z,57.7
2017-06-14T10:23:53.557Z,57.2
2017-06-14T10:24:52.780Z,56.9
2017-06-14T10:25:51.996Z,55.9
2017-06-14T10:26:51.599Z,55.9
2017-06-14T10:27:50.905Z,55.8
2017-06-14T10:28:50.007Z,55.4
2017-06-14T10:29:49.321Z,55.5
2017-06-14T10:30:49.042Z,56.1
2017-06-14T10:31:48.272Z,55.9
2017-06-14T10:32:47.378Z,55
2017-06-14T10:33:46.865Z,54.9
2017-06-14T10:34:46.471Z,55.3
2017-06-14T10:35:45.695Z,55.6
2017-06-14T10:36:45.183Z,56
2017-06-14T10:37:44.291Z,55.7
2017-06-14T10:38:43.520Z,55.5
2017-06-14T10:40:42.522Z,55.4
2017-06-14T10:41:41.748Z,55.6
2017-06-14T10:42:41.046Z,56.1
2017-06-14T10:43:40.768Z,55.9
2017-06-14T10:44:39.987Z,56
2017-06-14T10:45:39.205Z,55.7
2017-06-14T10:46:38.815Z,55.7
2017-06-14T10:47:38.031Z,56
2017-06-14T10:48:37.639Z,56
2017-06-14T10:49:36.856Z,56.2
2017-06-14T10:50:36.462Z,58.2
2017-06-14T10:51:35.559Z,55.8
2017-06-14T10:52:35.047Z,55.5
2017-06-14T10:53:34.266Z,55.5
2017-06-14T10:54:33.484Z,55.4
2017-06-14T10:55:33.208Z,54.9
2017-06-14T10:56:32.449Z,54.4
2017-06-14T10:57:31.677Z,54.7
2017-06-14T10:58:31.476Z,54.5
2017-06-14T10:59:30.694Z,53.9
2017-06-14T11:00:29.916Z,54
2017-06-14T11:01:29.143Z,54
2017-06-14T11:02:28.862Z,53.9
2017-06-14T11:03:28.086Z,54.2
2017-06-14T11:04:27.308Z,53.9
2017-06-14T11:05:27.039Z,54.2
2017-06-14T11:06:26.265Z,54.1
2017-06-14T11:07:25.367Z,53.3
2017-06-14T11:08:25.094Z,53.5
2017-06-14T11:09:24.323Z,54.1
2017-06-14T11:10:23.626Z,54.8
2017-06-14T11:11:23.240Z,53.8
2017-06-14T11:12:22.416Z,53.5
2017-06-14T11:13:22.022Z,52.9
2017-06-14T11:14:21.259Z,52.5
2017-06-14T11:15:20.979Z,51.8
2017-06-14T11:16:20.194Z,51.8
2017-06-14T11:17:19.800Z,51.5
2017-06-14T11:18:18.906Z,51.6
2017-06-14T11:19:18.513Z,51.3
2017-06-14T11:20:17.616Z,51.5
2017-06-14T11:21:16.995Z,52.2
2017-06-14T11:22:16.716Z,52.2
2017-06-14T11:23:16.016Z,51.2
2017-06-14T11:24:15.235Z,51.7
2017-06-14T11:25:14.960Z,51.3
2017-06-14T11:26:14.083Z,50.9
2017-06-14T11:27:13.303Z,51.6
2017-06-14T11:28:13.056Z,50.2
2017-06-14T11:29:12.284Z,50.4
2017-06-14T11:30:11.774Z,50.4
2017-06-14T11:31:10.991Z,50.2
2017-06-14T11:32:10.591Z,50.8
2017-06-14T11:33:10.079Z,49.9
2017-06-14T11:35:08.688Z,50.9
2017-06-14T11:36:07.909Z,50.5
2017-06-14T11:37:07.398Z,50.1
2017-06-14T11:38:07.120Z,46.9
2017-06-14T11:39:06.338Z,47.5
2017-06-14T11:40:05.555Z,47.3
2017-06-14T11:41:05.165Z,47.8
2017-06-14T11:42:04.265Z,47.8
2017-06-14T11:43:04.262Z,46.9
2017-06-14T11:44:03.365Z,46.8
2017-06-14T11:45:02.981Z,47.1
2017-06-14T11:46:02.470Z,47.1
2017-06-14T11:47:01.569Z,46.8
2017-06-14T11:48:01.177Z,47.4
2017-06-14T11:50:00.056Z,45.8
2017-06-14T11:50:59.158Z,44.8
2017-06-14T11:51:58.886Z,45.5
2017-06-14T11:52:58.099Z,46
2017-06-14T11:53:57.699Z,46.7
2017-06-14T11:54:56.914Z,47.3
2017-06-14T11:55:27.446Z,47.3
2017-06-14T11:55:57.977Z,47.6
2017-06-14T11:56:55.686Z,46.7
2017-06-14T11:57:55.410Z,47
2017-06-14T11:58:54.717Z,47.1
2017-06-14T11:59:54.329Z,46.9
2017-06-14T12:00:53.555Z,47.4
2017-06-14T12:01:53.167Z,48.5
2017-06-14T12:02:52.387Z,47.8
2017-06-14T12:03:52.065Z,47.4
2017-06-14T12:04:51.168Z,48.7
2017-06-14T12:05:50.778Z,48.9
2017-06-14T12:06:50.269Z,48.2
2017-06-14T12:08:48.876Z,47.4
2017-06-14T12:09:48.487Z,46.7
2017-06-14T12:10:48.152Z,46.8
2017-06-14T12:11:47.316Z,47.8
2017-06-14T12:13:46.431Z,45.1
2017-06-14T12:14:45.554Z,46
2017-06-14T12:15:45.041Z,45.4
2017-06-14T12:16:44.768Z,45.3
2017-06-14T12:17:44.021Z,44.9
2017-06-14T12:18:43.245Z,44.5
2017-06-14T12:20:42.360Z,44.8
2017-06-14T12:21:41.862Z,45.6
2017-06-14T12:22:41.474Z,44.3
2017-06-14T12:23:40.591Z,44.7
2017-06-14T12:24:40.196Z,44.2
2017-06-14T12:25:39.412Z,44
2017-06-14T12:26:39.014Z,44.2
2017-06-14T12:27:38.240Z,44.8
2017-06-14T12:28:37.963Z,44.3
2017-06-14T12:29:37.569Z,43.3
2017-06-14T12:30:36.671Z,42.5
2017-06-14T12:31:36.392Z,42.6
2017-06-14T12:32:35.508Z,42.8
2017-06-14T12:33:35.234Z,42.9
2017-06-14T12:34:34.459Z,42.7
2017-06-14T12:35:34.068Z,43
2017-06-14T12:36:33.786Z,42.6
2017-06-14T12:37:33.009Z,41.4
2017-06-14T12:38:03.599Z,41.4
2017-06-14T12:38:34.197Z,41.8
2017-06-14T12:39:05.290Z,41.8
2017-06-14T12:39:35.394Z,42.3
2017-06-14T12:40:31.481Z,43
2017-06-14T12:41:31.088Z,43.2
2017-06-14T12:42:30.421Z,43
2017-06-14T12:43:29.909Z,43.2
2017-06-14T12:44:29.023Z,43
2017-06-14T12:45:28.750Z,44.3
2017-06-14T12:47:27.744Z,42.9
2017-06-14T12:48:27.237Z,43
2017-06-14T12:49:26.458Z,41.9
2017-06-14T12:50:25.947Z,41.8
2017-06-14T12:51:25.673Z,41.6
2017-06-14T12:52:24.775Z,41.7
2017-06-14T12:54:23.887Z,41.7
2017-06-14T12:55:23.570Z,41.6
2017-06-14T12:56:22.789Z,41.9
2017-06-14T12:57:22.397Z,43
2017-06-14T12:58:21.616Z,40.2
2017-06-14T12:59:21.218Z,40.1
2017-06-14T13:00:20.942Z,40.9
2017-06-14T13:01:20.166Z,40.3
2017-06-14T13:02:19.897Z,40.5
2017-06-14T13:03:19.126Z,41.2
2017-06-14T13:04:18.744Z,40.8
2017-06-14T13:05:18.531Z,40.7
2017-06-14T13:06:18.331Z,40.3
2017-06-14T13:07:17.047Z,41.1
2017-06-14T13:08:16.776Z,41.5
2017-06-14T13:09:15.997Z,40.6
2017-06-14T13:10:15.721Z,40.6
2017-06-14T13:11:14.946Z,40.2
2017-06-14T13:12:14.570Z,40.4
2017-06-14T13:13:13.785Z,40.5
2017-06-14T13:14:13.416Z,40.7
2017-06-14T13:15:13.036Z,41
2017-06-14T13:16:12.345Z,40.7
2017-06-14T13:17:12.073Z,40.4
2017-06-14T13:18:11.298Z,40.2
2017-06-14T13:19:11.024Z,40.7
2017-06-14T13:20:10.253Z,40
2017-06-14T13:21:09.985Z,40.1
2017-06-14T13:22:09.211Z,40.2
2017-06-14T13:23:08.940Z,40.1
2017-06-14T13:24:08.165Z,39.9
2017-06-14T13:25:07.896Z,40.5
2017-06-14T13:26:07.154Z,39.7
2017-06-14T13:27:06.877Z,40
2017-06-14T13:28:06.480Z,39.9
2017-06-14T13:29:05.646Z,39.8
2017-06-14T13:30:04.901Z,40
2017-06-14T13:31:04.631Z,40.1